sensor_id;sensor_type;location;lat;lon;timestamp;temperature;humidity
3232;DHT22;1628;48.884;9.210;2022-08-19T04:02:37;21.10;99.90
3232;DHT22;1628;48.884;9.210;2022-08-19T04:05:05;21.10;99.90
3232;DHT22;1628;48.884;9.210;2022-08-19T04:07:33;21.10;99.90
3232;DHT22;1628;48.884;9.210;2022-08-19T04:10:01;21.00;99.90
3232;DHT22;1628;48.884;9.210;2022-08-19T04:12:28;21.00;99.90
3232;DHT22;1628;48.884;9.210;2022-08-19T04:14:55;21.00;99.90
3232;DHT22;1628;48.884;9.210;2022-08-19T04:17:21;21.10;99.90
3232;DHT22;1628;48.884;9.210;2022-08-19T04:19:49;21.10;99.90
3232;DHT22;1628;48.884;9.210;2022-08-19T04:22:16;21.10;99.90
3232;DHT22;1628;48.884;9.210;2022-08-19T04:24:43;21.10;99.90
3232;DHT22;1628;48.884;9.210;2022-08-19T04:27:10;21.00;99.90
3232;DHT22;1628;48.884;9.210;2022-08-19T04:29:37;21.10;99.90
3232;DHT22;1628;48.884;9.210;2022-08-19T04:32:05;21.00;99.90
3232;DHT22;1628;48.884;9.210;2022-08-19T04:34:31;21.00;99.90
3232;DHT22;1628;48.884;9.210;2022-08-19T04:37:00;21.10;99.90
3232;DHT22;1628;48.884;9.210;2022-08-19T04:39:28;21.10;99.90
3232;DHT22;1628;48.884;9.210;2022-08-19T04:42:08;21.10;99.90
3232;DHT22;1628;48.884;9.210;2022-08-19T04:44:52;21.10;99.90
3232;DHT22;1628;48.884;9.210;2022-08-19T04:47:19;21.10;99.90
3232;DHT22;1628;48.884;9.210;2022-08-19T04:49:46;21.10;99.90
3232;DHT22;1628;48.884;9.210;2022-08-19T04:52:15;21.10;99.90
3232;DHT22;1628;48.884;9.210;2022-08-19T04:54:42;21.10;99.90
3232;DHT22;1628;48.884;9.210;2022-08-19T04:57:09;21.10;99.90
3232;DHT22;1628;48.884;9.210;2022-08-19T04:59:36;21.10;99.90
3232;DHT22;1628;48.884;9.210;2022-08-19T05:02:04;21.10;99.90
3232;DHT22;1628;48.884;9.210;2022-08-19T05:04:32;21.10;99.90
3232;DHT22;1628;48.884;9.210;2022-08-19T05:07:01;21.10;99.90
3232;DHT22;1628;48.884;9.210;2022-08-19T05:09:29;21.10;99.90
3232;DHT22;1628;48.884;9.210;2022-08-19T05:11:56;21.10;99.90
3232;DHT22;1628;48.884;9.210;2022-08-19T05:14:23;21.10;99.90
3232;DHT22;1628;48.884;9.210;2022-08-19T05:16:50;21.10;99.90
3232;DHT22;1628;48.884;9.210;2022-08-19T05:19:16;21.20;99.90
3232;DHT22;1628;48.884;9.210;2022-08-19T05:21:57;21.20;99.90
3232;DHT22;1628;48.884;9.210;2022-08-19T05:24:43;21.20;99.90
3232;DHT22;1628;48.884;9.210;2022-08-19T05:27:10;21.20;99.90
3232;DHT22;1628;48.884;9.210;2022-08-19T05:29:37;21.20;99.90
3232;DHT22;1628;48.884;9.210;2022-08-19T05:32:05;21.20;99.90
3232;DHT22;1628;48.884;9.210;2022-08-19T05:34:33;21.20;99.90
3232;DHT22;1628;48.884;9.210;2022-08-19T05:37:02;21.20;99.90
3232;DHT22;1628;48.884;9.210;2022-08-19T05:39:31;21.20;99.90
3232;DHT22;1628;48.884;9.210;2022-08-19T05:42:02;21.20;99.90
3232;DHT22;1628;48.884;9.210;2022-08-19T05:44:33;21.30;99.90
3232;DHT22;1628;48.884;9.210;2022-08-19T05:47:01;21.40;99.90
3232;DHT22;1628;48.884;9.210;2022-08-19T05:49:30;21.50;99.90
3232;DHT22;1628;48.884;9.210;2022-08-19T05:51:57;21.50;99.90
3232;DHT22;1628;48.884;9.210;2022-08-19T05:54:25;21.60;99.90
3232;DHT22;1628;48.884;9.210;2022-08-19T05:56:53;21.70;99.90
3232;DHT22;1628;48.884;9.210;2022-08-19T05:59:21;21.80;99.90
3232;DHT22;1628;48.884;9.210;2022-08-19T06:01:52;21.80;99.90
3232;DHT22;1628;48.884;9.210;2022-08-19T06:04:22;21.90;99.90
3232;DHT22;1628;48.884;9.210;2022-08-19T06:06:50;21.90;99.90
3232;DHT22;1628;48.884;9.210;2022-08-19T06:09:17;21.90;99.90
3232;DHT22;1628;48.884;9.210;2022-08-19T06:11:46;21.90;99.90
3232;DHT22;1628;48.884;9.210;2022-08-19T06:14:15;21.90;99.90
3232;DHT22;1628;48.884;9.210;2022-08-19T06:16:44;22.00;99.90
3232;DHT22;1628;48.884;9.210;2022-08-19T06:19:13;22.00;99.90
3232;DHT22;1628;48.884;9.210;2022-08-19T06:21:43;22.00;99.90
3232;DHT22;1628;48.884;9.210;2022-08-19T06:24:12;21.90;99.90
3232;DHT22;1628;48.884;9.210;2022-08-19T06:26:42;21.90;99.90
3232;DHT22;1628;48.884;9.210;2022-08-19T06:29:11;21.90;99.90
3232;DHT22;1628;48.884;9.210;2022-08-19T06:31:42;21.90;99.90
3232;DHT22;1628;48.884;9.210;2022-08-19T06:34:10;21.90;99.90
3232;DHT22;1628;48.884;9.210;2022-08-19T06:36:39;22.00;99.90
3232;DHT22;1628;48.884;9.210;2022-08-19T06:39:09;22.10;99.90
3232;DHT22;1628;48.884;9.210;2022-08-19T06:41:41;22.00;99.90
3232;DHT22;1628;48.884;9.210;2022-08-19T06:44:10;22.10;99.90
3232;DHT22;1628;48.884;9.210;2022-08-19T06:46:37;22.10;99.90
3232;DHT22;1628;48.884;9.210;2022-08-19T06:49:04;22.10;99.90
3232;DHT22;1628;48.884;9.210;2022-08-19T06:51:32;22.10;99.90
3232;DHT22;1628;48.884;9.210;2022-08-19T06:53:59;22.20;99.90
3232;DHT22;1628;48.884;9.210;2022-08-19T06:56:29;22.20;99.90
3232;DHT22;1628;48.884;9.210;2022-08-19T06:58:59;22.20;99.90
3232;DHT22;1628;48.884;9.210;2022-08-19T07:01:26;22.30;99.90
3232;DHT22;1628;48.884;9.210;2022-08-19T07:03:52;22.30;99.90
3232;DHT22;1628;48.884;9.210;2022-08-19T07:06:19;22.30;99.90
3232;DHT22;1628;48.884;9.210;2022-08-19T07:08:48;22.30;99.90
3232;DHT22;1628;48.884;9.210;2022-08-19T07:11:16;22.30;99.90
3232;DHT22;1628;48.884;9.210;2022-08-19T07:13:45;22.40;99.90
3232;DHT22;1628;48.884;9.210;2022-08-19T07:16:17;22.40;99.90
3232;DHT22;1628;48.884;9.210;2022-08-19T07:18:44;22.40;99.90
3232;DHT22;1628;48.884;9.210;2022-08-19T07:21:14;22.40;99.90
3232;DHT22;1628;48.884;9.210;2022-08-19T07:23:41;22.40;99.90
3232;DHT22;1628;48.884;9.210;2022-08-19T07:26:12;22.40;99.90
3232;DHT22;1628;48.884;9.210;2022-08-19T07:28:39;22.40;99.90
3232;DHT22;1628;48.884;9.210;2022-08-19T07:31:06;22.40;99.90
3232;DHT22;1628;48.884;9.210;2022-08-19T07:33:33;22.40;99.90
3232;DHT22;1628;48.884;9.210;2022-08-19T07:36:01;22.40;99.90
3232;DHT22;1628;48.884;9.210;2022-08-19T07:38:28;22.40;99.90
3232;DHT22;1628;48.884;9.210;2022-08-19T07:40:55;22.30;99.90
3232;DHT22;1628;48.884;9.210;2022-08-19T07:43:23;22.30;99.90
3232;DHT22;1628;48.884;9.210;2022-08-19T07:45:50;22.30;99.90
3232;DHT22;1628;48.884;9.210;2022-08-19T07:48:17;22.20;99.90
3232;DHT22;1628;48.884;9.210;2022-08-19T07:50:44;22.10;99.90
3232;DHT22;1628;48.884;9.210;2022-08-19T07:53:10;22.00;99.90
3232;DHT22;1628;48.884;9.210;2022-08-19T07:55:38;22.00;99.90
3232;DHT22;1628;48.884;9.210;2022-08-19T07:58:05;22.00;99.90
3232;DHT22;1628;48.884;9.210;2022-08-19T08:00:33;22.00;99.90
3232;DHT22;1628;48.884;9.210;2022-08-19T08:03:01;21.90;99.90
3232;DHT22;1628;48.884;9.210;2022-08-19T08:05:27;21.90;99.90
3232;DHT22;1628;48.884;9.210;2022-08-19T08:08:12;21.90;99.90
3232;DHT22;1628;48.884;9.210;2022-08-19T08:10:56;21.90;99.90
3232;DHT22;1628;48.884;9.210;2022-08-19T08:13:23;21.90;99.90
3232;DHT22;1628;48.884;9.210;2022-08-19T08:15:52;21.90;99.90
3232;DHT22;1628;48.884;9.210;2022-08-19T08:18:19;21.80;99.90
3232;DHT22;1628;48.884;9.210;2022-08-19T08:20:46;21.80;99.90
3232;DHT22;1628;48.884;9.210;2022-08-19T08:23:12;21.80;99.90
3232;DHT22;1628;48.884;9.210;2022-08-19T08:25:52;21.70;99.90
3232;DHT22;1628;48.884;9.210;2022-08-19T08:28:20;21.80;99.90
3232;DHT22;1628;48.884;9.210;2022-08-19T08:30:47;21.70;99.90
3232;DHT22;1628;48.884;9.210;2022-08-19T08:33:20;21.70;99.90
3232;DHT22;1628;48.884;9.210;2022-08-19T08:35:47;21.70;99.90
3232;DHT22;1628;48.884;9.210;2022-08-19T08:38:14;21.80;99.90
3232;DHT22;1628;48.884;9.210;2022-08-19T08:40:45;21.80;99.90
3232;DHT22;1628;48.884;9.210;2022-08-19T08:43:21;21.80;99.90
3232;DHT22;1628;48.884;9.210;2022-08-19T08:45:54;21.80;99.90
3232;DHT22;1628;48.884;9.210;2022-08-19T08:48:30;21.80;99.90
3232;DHT22;1628;48.884;9.210;2022-08-19T08:51:05;21.80;99.90
3232;DHT22;1628;48.884;9.210;2022-08-19T08:53:34;21.90;99.90
3232;DHT22;1628;48.884;9.210;2022-08-19T08:56:04;22.00;99.90
3232;DHT22;1628;48.884;9.210;2022-08-19T08:58:44;22.20;99.90
3232;DHT22;1628;48.884;9.210;2022-08-19T09:01:12;22.40;99.90
3232;DHT22;1628;48.884;9.210;2022-08-19T09:03:41;22.50;99.90
3232;DHT22;1628;48.884;9.210;2022-08-19T09:06:16;22.60;99.90
3232;DHT22;1628;48.884;9.210;2022-08-19T09:08:49;22.70;99.90
3232;DHT22;1628;48.884;9.210;2022-08-19T09:11:24;22.70;99.90
3232;DHT22;1628;48.884;9.210;2022-08-19T09:14:05;22.80;99.90
3232;DHT22;1628;48.884;9.210;2022-08-19T09:16:34;22.90;99.90
3232;DHT22;1628;48.884;9.210;2022-08-19T09:19:06;23.00;99.90
3232;DHT22;1628;48.884;9.210;2022-08-19T09:21:33;23.10;99.90
3232;DHT22;1628;48.884;9.210;2022-08-19T09:24:01;23.20;99.90
3232;DHT22;1628;48.884;9.210;2022-08-19T09:26:31;23.20;99.90
3232;DHT22;1628;48.884;9.210;2022-08-19T09:28:58;23.20;99.90
3232;DHT22;1628;48.884;9.210;2022-08-19T09:31:28;23.30;99.90
3232;DHT22;1628;48.884;9.210;2022-08-19T09:33:56;23.30;99.90
3232;DHT22;1628;48.884;9.210;2022-08-19T09:36:26;23.30;99.90
3232;DHT22;1628;48.884;9.210;2022-08-19T09:38:55;23.30;99.90
3232;DHT22;1628;48.884;9.210;2022-08-19T09:41:23;23.20;99.90
3232;DHT22;1628;48.884;9.210;2022-08-19T09:43:52;23.10;99.90
3232;DHT22;1628;48.884;9.210;2022-08-19T09:46:21;23.10;99.90
3232;DHT22;1628;48.884;9.210;2022-08-19T09:48:49;23.10;99.90
3232;DHT22;1628;48.884;9.210;2022-08-19T09:51:18;23.20;99.90
3232;DHT22;1628;48.884;9.210;2022-08-19T09:53:48;23.20;99.90
3232;DHT22;1628;48.884;9.210;2022-08-19T09:56:18;23.20;99.90
3232;DHT22;1628;48.884;9.210;2022-08-19T09:58:45;23.10;99.90
3232;DHT22;1628;48.884;9.210;2022-08-19T10:01:16;23.10;99.90
3232;DHT22;1628;48.884;9.210;2022-08-19T10:03:47;23.10;99.90
3232;DHT22;1628;48.884;9.210;2022-08-19T10:06:14;23.20;99.90
3232;DHT22;1628;48.884;9.210;2022-08-19T10:08:41;23.20;99.90
3232;DHT22;1628;48.884;9.210;2022-08-19T10:11:10;23.20;99.90
3232;DHT22;1628;48.884;9.210;2022-08-19T10:13:37;23.20;99.90
3232;DHT22;1628;48.884;9.210;2022-08-19T10:16:07;23.20;99.90
3232;DHT22;1628;48.884;9.210;2022-08-19T10:18:35;23.20;99.90
3232;DHT22;1628;48.884;9.210;2022-08-19T10:21:05;23.20;99.90
3232;DHT22;1628;48.884;9.210;2022-08-19T10:23:34;23.30;99.90
3232;DHT22;1628;48.884;9.210;2022-08-19T10:26:02;23.30;99.90
3232;DHT22;1628;48.884;9.210;2022-08-19T10:28:33;23.30;99.90
3232;DHT22;1628;48.884;9.210;2022-08-19T10:31:04;23.30;99.90
3232;DHT22;1628;48.884;9.210;2022-08-19T10:33:32;23.40;99.90
3232;DHT22;1628;48.884;9.210;2022-08-19T10:36:00;23.40;99.90
3232;DHT22;1628;48.884;9.210;2022-08-19T10:38:26;23.40;99.90
3232;DHT22;1628;48.884;9.210;2022-08-19T10:40:54;23.40;99.90
3232;DHT22;1628;48.884;9.210;2022-08-19T10:43:21;23.40;99.90
3232;DHT22;1628;48.884;9.210;2022-08-19T10:45:52;23.40;99.90
3232;DHT22;1628;48.884;9.210;2022-08-19T10:48:19;23.40;99.90
3232;DHT22;1628;48.884;9.210;2022-08-19T10:50:45;23.40;99.90
3232;DHT22;1628;48.884;9.210;2022-08-19T10:53:29;23.40;99.90
3232;DHT22;1628;48.884;9.210;2022-08-19T10:55:56;23.50;99.90
3232;DHT22;1628;48.884;9.210;2022-08-19T10:58:41;23.50;99.90
3232;DHT22;1628;48.884;9.210;2022-08-19T11:01:09;23.50;99.90
3232;DHT22;1628;48.884;9.210;2022-08-19T11:03:35;23.50;99.90
3232;DHT22;1628;48.884;9.210;2022-08-19T11:06:04;23.60;99.90
3232;DHT22;1628;48.884;9.210;2022-08-19T11:08:32;23.60;99.90
3232;DHT22;1628;48.884;9.210;2022-08-19T11:11:01;23.80;99.90
3232;DHT22;1628;48.884;9.210;2022-08-19T11:13:29;24.00;99.90
3232;DHT22;1628;48.884;9.210;2022-08-19T11:15:57;24.20;99.90
3232;DHT22;1628;48.884;9.210;2022-08-19T11:18:26;24.30;99.90
3232;DHT22;1628;48.884;9.210;2022-08-19T11:20:53;24.40;99.90
3232;DHT22;1628;48.884;9.210;2022-08-19T11:23:20;24.60;99.90
3232;DHT22;1628;48.884;9.210;2022-08-19T11:25:46;24.70;99.90
3232;DHT22;1628;48.884;9.210;2022-08-19T11:28:13;24.70;99.90
3232;DHT22;1628;48.884;9.210;2022-08-19T11:30:40;24.80;99.90
3232;DHT22;1628;48.884;9.210;2022-08-19T11:33:07;24.90;99.90
3232;DHT22;1628;48.884;9.210;2022-08-19T11:35:40;24.90;99.90
3232;DHT22;1628;48.884;9.210;2022-08-19T11:38:07;24.90;99.90
3232;DHT22;1628;48.884;9.210;2022-08-19T11:40:33;24.90;99.90
3232;DHT22;1628;48.884;9.210;2022-08-19T11:43:00;24.80;99.90
3232;DHT22;1628;48.884;9.210;2022-08-19T11:45:27;24.70;99.90
3232;DHT22;1628;48.884;9.210;2022-08-19T11:47:55;24.70;99.90
3232;DHT22;1628;48.884;9.210;2022-08-19T11:50:23;24.70;99.90
3232;DHT22;1628;48.884;9.210;2022-08-19T11:52:53;24.60;99.90
3232;DHT22;1628;48.884;9.210;2022-08-19T11:55:20;24.60;99.90
3232;DHT22;1628;48.884;9.210;2022-08-19T11:57:47;24.60;99.90
3232;DHT22;1628;48.884;9.210;2022-08-19T12:00:14;24.50;99.90
3232;DHT22;1628;48.884;9.210;2022-08-19T12:02:41;24.40;99.90
3232;DHT22;1628;48.884;9.210;2022-08-19T12:05:08;24.50;99.90
3232;DHT22;1628;48.884;9.210;2022-08-19T12:07:35;24.40;99.90
3232;DHT22;1628;48.884;9.210;2022-08-19T12:10:03;24.40;99.90
3232;DHT22;1628;48.884;9.210;2022-08-19T12:12:30;24.30;99.90
3232;DHT22;1628;48.884;9.210;2022-08-19T12:14:57;24.40;99.90
3232;DHT22;1628;48.884;9.210;2022-08-19T12:17:24;24.30;99.90
3232;DHT22;1628;48.884;9.210;2022-08-19T12:19:51;24.40;99.90
3232;DHT22;1628;48.884;9.210;2022-08-19T12:22:18;24.50;99.90
3232;DHT22;1628;48.884;9.210;2022-08-19T12:24:46;24.60;99.90
3232;DHT22;1628;48.884;9.210;2022-08-19T12:27:14;24.60;99.90
3232;DHT22;1628;48.884;9.210;2022-08-19T12:29:41;24.70;99.90
3232;DHT22;1628;48.884;9.210;2022-08-19T12:32:08;24.90;99.90
3232;DHT22;1628;48.884;9.210;2022-08-19T12:34:35;25.00;99.90
3232;DHT22;1628;48.884;9.210;2022-08-19T12:37:05;25.20;99.90
3232;DHT22;1628;48.884;9.210;2022-08-19T12:39:35;25.20;99.90
3232;DHT22;1628;48.884;9.210;2022-08-19T12:42:03;25.30;99.90
3232;DHT22;1628;48.884;9.210;2022-08-19T12:44:32;25.30;99.90
3232;DHT22;1628;48.884;9.210;2022-08-19T12:46:59;25.30;99.90
3232;DHT22;1628;48.884;9.210;2022-08-19T12:49:27;25.30;99.90
3232;DHT22;1628;48.884;9.210;2022-08-19T12:51:54;25.30;99.90
3232;DHT22;1628;48.884;9.210;2022-08-19T12:54:21;25.30;99.90
3232;DHT22;1628;48.884;9.210;2022-08-19T12:56:47;25.20;99.90
3232;DHT22;1628;48.884;9.210;2022-08-19T12:59:14;25.20;99.90
3232;DHT22;1628;48.884;9.210;2022-08-19T13:01:45;25.20;99.90
3232;DHT22;1628;48.884;9.210;2022-08-19T13:04:12;25.10;99.90
3232;DHT22;1628;48.884;9.210;2022-08-19T13:06:38;25.10;99.90
3232;DHT22;1628;48.884;9.210;2022-08-19T13:09:06;25.10;99.90
3232;DHT22;1628;48.884;9.210;2022-08-19T13:11:32;25.00;99.90
3232;DHT22;1628;48.884;9.210;2022-08-19T13:14:01;25.00;99.90
3232;DHT22;1628;48.884;9.210;2022-08-19T13:16:28;25.00;99.90
3232;DHT22;1628;48.884;9.210;2022-08-19T13:18:57;24.90;99.90
3232;DHT22;1628;48.884;9.210;2022-08-19T13:21:25;24.90;99.90
3232;DHT22;1628;48.884;9.210;2022-08-19T13:23:53;24.90;99.90
3232;DHT22;1628;48.884;9.210;2022-08-19T13:26:20;24.90;99.90
3232;DHT22;1628;48.884;9.210;2022-08-19T13:28:47;24.80;99.90
3232;DHT22;1628;48.884;9.210;2022-08-19T13:31:34;24.90;99.90
3232;DHT22;1628;48.884;9.210;2022-08-19T13:34:26;24.90;99.90
3232;DHT22;1628;48.884;9.210;2022-08-19T13:36:54;24.80;99.90
3232;DHT22;1628;48.884;9.210;2022-08-19T13:39:20;24.70;99.90
3232;DHT22;1628;48.884;9.210;2022-08-19T13:41:48;24.60;99.90
3232;DHT22;1628;48.884;9.210;2022-08-19T13:44:16;24.60;99.90
3232;DHT22;1628;48.884;9.210;2022-08-19T13:46:44;24.50;99.90
3232;DHT22;1628;48.884;9.210;2022-08-19T13:49:11;24.40;99.90
3232;DHT22;1628;48.884;9.210;2022-08-19T13:51:42;24.30;99.90
3232;DHT22;1628;48.884;9.210;2022-08-19T13:54:09;24.20;99.90
3232;DHT22;1628;48.884;9.210;2022-08-19T13:56:40;24.10;99.90
3232;DHT22;1628;48.884;9.210;2022-08-19T13:59:07;23.90;99.90
3232;DHT22;1628;48.884;9.210;2022-08-19T14:01:34;23.60;99.90
3232;DHT22;1628;48.884;9.210;2022-08-19T14:04:01;23.40;99.90
3232;DHT22;1628;48.884;9.210;2022-08-19T14:06:28;23.20;99.90
3232;DHT22;1628;48.884;9.210;2022-08-19T14:08:56;23.10;99.90
3232;DHT22;1628;48.884;9.210;2022-08-19T14:11:22;23.00;99.90
3232;DHT22;1628;48.884;9.210;2022-08-19T14:13:49;22.90;99.90
3232;DHT22;1628;48.884;9.210;2022-08-19T14:16:16;22.90;99.90
3232;DHT22;1628;48.884;9.210;2022-08-19T14:18:43;22.80;99.90
3232;DHT22;1628;48.884;9.210;2022-08-19T14:21:15;22.70;99.90
3232;DHT22;1628;48.884;9.210;2022-08-19T14:23:42;22.60;99.90
3232;DHT22;1628;48.884;9.210;2022-08-19T14:26:14;22.60;99.90
3232;DHT22;1628;48.884;9.210;2022-08-19T14:28:41;22.60;99.90
3232;DHT22;1628;48.884;9.210;2022-08-19T14:31:09;22.60;99.90
3232;DHT22;1628;48.884;9.210;2022-08-19T14:33:36;22.60;99.90
3232;DHT22;1628;48.884;9.210;2022-08-19T14:36:03;22.60;99.90
3232;DHT22;1628;48.884;9.210;2022-08-19T14:38:30;22.60;99.90
3232;DHT22;1628;48.884;9.210;2022-08-19T14:41:07;22.50;99.90
3232;DHT22;1628;48.884;9.210;2022-08-19T14:43:35;22.50;99.90
3232;DHT22;1628;48.884;9.210;2022-08-19T14:46:02;22.40;99.90
3232;DHT22;1628;48.884;9.210;2022-08-19T14:48:29;22.40;99.90
3232;DHT22;1628;48.884;9.210;2022-08-19T14:50:56;22.40;99.90
3232;DHT22;1628;48.884;9.210;2022-08-19T14:53:23;22.40;99.90
3232;DHT22;1628;48.884;9.210;2022-08-19T14:55:50;22.40;99.90
3232;DHT22;1628;48.884;9.210;2022-08-19T14:58:16;22.40;99.90
3232;DHT22;1628;48.884;9.210;2022-08-19T15:00:44;22.40;99.90
3232;DHT22;1628;48.884;9.210;2022-08-19T15:03:11;22.40;99.90
3232;DHT22;1628;48.884;9.210;2022-08-19T15:05:38;22.40;99.90
3232;DHT22;1628;48.884;9.210;2022-08-19T15:08:05;22.40;99.90
3232;DHT22;1628;48.884;9.210;2022-08-19T15:10:32;22.40;99.90
3232;DHT22;1628;48.884;9.210;2022-08-19T15:12:59;22.40;99.90
3232;DHT22;1628;48.884;9.210;2022-08-19T15:15:25;22.40;99.90
3232;DHT22;1628;48.884;9.210;2022-08-19T15:17:54;22.40;99.90
3232;DHT22;1628;48.884;9.210;2022-08-19T15:20:27;22.40;99.90
3232;DHT22;1628;48.884;9.210;2022-08-19T15:22:54;22.40;99.90
3232;DHT22;1628;48.884;9.210;2022-08-19T15:25:21;22.40;99.90
3232;DHT22;1628;48.884;9.210;2022-08-19T15:27:48;22.50;99.90
3232;DHT22;1628;48.884;9.210;2022-08-19T15:30:20;22.60;99.90
3232;DHT22;1628;48.884;9.210;2022-08-19T15:32:47;22.70;99.90
3232;DHT22;1628;48.884;9.210;2022-08-19T15:35:16;22.70;99.90
3232;DHT22;1628;48.884;9.210;2022-08-19T15:37:44;22.60;99.90
3232;DHT22;1628;48.884;9.210;2022-08-19T15:40:11;22.70;99.90
3232;DHT22;1628;48.884;9.210;2022-08-19T15:42:38;22.70;99.90
3232;DHT22;1628;48.884;9.210;2022-08-19T15:45:07;22.60;99.90
3232;DHT22;1628;48.884;9.210;2022-08-19T15:47:35;22.60;99.90
3232;DHT22;1628;48.884;9.210;2022-08-19T15:50:05;22.70;99.90
3232;DHT22;1628;48.884;9.210;2022-08-19T15:52:33;22.80;99.90
3232;DHT22;1628;48.884;9.210;2022-08-19T15:55:00;22.80;99.90
3232;DHT22;1628;48.884;9.210;2022-08-19T15:57:27;22.80;99.90
3232;DHT22;1628;48.884;9.210;2022-08-19T16:00:12;22.80;99.90
3232;DHT22;1628;48.884;9.210;2022-08-19T16:02:56;22.80;99.90
3232;DHT22;1628;48.884;9.210;2022-08-19T16:05:40;22.80;99.90
3232;DHT22;1628;48.884;9.210;2022-08-19T16:08:26;22.80;99.90
3232;DHT22;1628;48.884;9.210;2022-08-19T16:10:52;22.90;99.90
3232;DHT22;1628;48.884;9.210;2022-08-19T16:13:20;22.90;99.90
3232;DHT22;1628;48.884;9.210;2022-08-19T16:15:48;23.00;99.90
3232;DHT22;1628;48.884;9.210;2022-08-19T16:18:15;23.10;99.90
3232;DHT22;1628;48.884;9.210;2022-08-19T16:20:42;23.10;99.90
3232;DHT22;1628;48.884;9.210;2022-08-19T16:23:11;23.00;99.90
3232;DHT22;1628;48.884;9.210;2022-08-19T16:25:39;23.00;99.90
3232;DHT22;1628;48.884;9.210;2022-08-19T16:28:05;23.00;99.90
3232;DHT22;1628;48.884;9.210;2022-08-19T16:30:36;23.00;99.90
3232;DHT22;1628;48.884;9.210;2022-08-19T16:33:03;23.00;99.90
3232;DHT22;1628;48.884;9.210;2022-08-19T16:35:30;23.00;99.90
3232;DHT22;1628;48.884;9.210;2022-08-19T16:37:57;23.00;99.90
3232;DHT22;1628;48.884;9.210;2022-08-19T16:40:23;22.90;99.90
3232;DHT22;1628;48.884;9.210;2022-08-19T16:42:51;22.90;99.90
3232;DHT22;1628;48.884;9.210;2022-08-19T16:45:18;22.80;99.90
3232;DHT22;1628;48.884;9.210;2022-08-19T16:47:46;22.70;99.90
3232;DHT22;1628;48.884;9.210;2022-08-19T16:50:13;22.60;99.90
3232;DHT22;1628;48.884;9.210;2022-08-19T16:52:39;22.50;99.90
3232;DHT22;1628;48.884;9.210;2022-08-19T16:55:07;22.50;99.90
3232;DHT22;1628;48.884;9.210;2022-08-19T16:57:34;22.50;99.90
3232;DHT22;1628;48.884;9.210;2022-08-19T17:00:04;22.50;99.90
3232;DHT22;1628;48.884;9.210;2022-08-19T17:02:34;22.50;99.90
3232;DHT22;1628;48.884;9.210;2022-08-19T17:05:01;22.50;99.90
3232;DHT22;1628;48.884;9.210;2022-08-19T17:07:30;22.50;99.90
3232;DHT22;1628;48.884;9.210;2022-08-19T17:09:57;22.50;99.90
3232;DHT22;1628;48.884;9.210;2022-08-19T17:12:24;22.40;99.90
3232;DHT22;1628;48.884;9.210;2022-08-19T17:14:52;22.40;99.90
3232;DHT22;1628;48.884;9.210;2022-08-19T17:17:20;22.40;99.90
3232;DHT22;1628;48.884;9.210;2022-08-19T17:19:47;22.40;99.90
3232;DHT22;1628;48.884;9.210;2022-08-19T17:22:14;22.40;99.90
3232;DHT22;1628;48.884;9.210;2022-08-19T17:24:40;22.40;99.90
3232;DHT22;1628;48.884;9.210;2022-08-19T17:27:07;22.30;99.90
3232;DHT22;1628;48.884;9.210;2022-08-19T17:29:34;22.30;99.90
3232;DHT22;1628;48.884;9.210;2022-08-19T17:32:01;22.30;99.90
3232;DHT22;1628;48.884;9.210;2022-08-19T17:34:31;22.30;99.90
3232;DHT22;1628;48.884;9.210;2022-08-19T17:36:58;22.20;99.90
3232;DHT22;1628;48.884;9.210;2022-08-19T17:39:24;22.20;99.90
3232;DHT22;1628;48.884;9.210;2022-08-19T17:41:51;22.20;99.90
3232;DHT22;1628;48.884;9.210;2022-08-19T17:44:18;22.20;99.90
3232;DHT22;1628;48.884;9.210;2022-08-19T17:46:45;22.20;99.90
3232;DHT22;1628;48.884;9.210;2022-08-19T17:49:12;22.20;99.90
3232;DHT22;1628;48.884;9.210;2022-08-19T17:51:43;22.10;99.90
3232;DHT22;1628;48.884;9.210;2022-08-19T17:54:12;22.10;99.90
3232;DHT22;1628;48.884;9.210;2022-08-19T17:56:40;22.00;99.90
3232;DHT22;1628;48.884;9.210;2022-08-19T17:59:08;22.00;99.90
3232;DHT22;1628;48.884;9.210;2022-08-19T18:01:35;21.90;99.90
3232;DHT22;1628;48.884;9.210;2022-08-19T18:04:02;21.90;99.90
3232;DHT22;1628;48.884;9.210;2022-08-19T18:06:30;21.80;99.90
3232;DHT22;1628;48.884;9.210;2022-08-19T18:08:58;21.70;99.90
3232;DHT22;1628;48.884;9.210;2022-08-19T18:11:25;21.70;99.90
3232;DHT22;1628;48.884;9.210;2022-08-19T18:13:51;21.60;99.90
3232;DHT22;1628;48.884;9.210;2022-08-19T18:16:18;21.60;99.90
3232;DHT22;1628;48.884;9.210;2022-08-19T18:18:46;21.50;99.90
3232;DHT22;1628;48.884;9.210;2022-08-19T18:21:13;21.40;99.90
3232;DHT22;1628;48.884;9.210;2022-08-19T18:23:40;21.40;99.90
3232;DHT22;1628;48.884;9.210;2022-08-19T18:26:08;21.40;99.90
3232;DHT22;1628;48.884;9.210;2022-08-19T18:28:35;21.40;99.90
3232;DHT22;1628;48.884;9.210;2022-08-19T18:31:04;21.40;99.90
3232;DHT22;1628;48.884;9.210;2022-08-19T18:33:31;21.30;99.90
3232;DHT22;1628;48.884;9.210;2022-08-19T18:35:58;21.30;99.90
3232;DHT22;1628;48.884;9.210;2022-08-19T18:38:26;21.30;99.90
3232;DHT22;1628;48.884;9.210;2022-08-19T18:41:11;21.30;99.90
3232;DHT22;1628;48.884;9.210;2022-08-19T18:43:55;21.40;99.90
3232;DHT22;1628;48.884;9.210;2022-08-19T18:46:39;21.40;99.90
3232;DHT22;1628;48.884;9.210;2022-08-19T18:49:26;21.40;99.90
3232;DHT22;1628;48.884;9.210;2022-08-19T18:51:53;21.30;99.90
3232;DHT22;1628;48.884;9.210;2022-08-19T18:54:21;21.30;99.90
3232;DHT22;1628;48.884;9.210;2022-08-19T18:56:50;21.30;99.90
3232;DHT22;1628;48.884;9.210;2022-08-19T18:59:20;21.30;99.90
3232;DHT22;1628;48.884;9.210;2022-08-19T19:01:47;21.40;99.90
3232;DHT22;1628;48.884;9.210;2022-08-19T19:04:16;21.40;99.90
3232;DHT22;1628;48.884;9.210;2022-08-19T19:06:43;21.40;99.90
3232;DHT22;1628;48.884;9.210;2022-08-19T19:09:13;21.40;99.90
3232;DHT22;1628;48.884;9.210;2022-08-19T19:11:43;21.40;99.90
3232;DHT22;1628;48.884;9.210;2022-08-19T19:14:13;21.40;99.90
3232;DHT22;1628;48.884;9.210;2022-08-19T19:16:41;21.40;99.90
3232;DHT22;1628;48.884;9.210;2022-08-19T19:19:10;21.40;99.90
3232;DHT22;1628;48.884;9.210;2022-08-19T19:21:39;21.40;99.90
3232;DHT22;1628;48.884;9.210;2022-08-19T19:24:07;21.40;99.90
3232;DHT22;1628;48.884;9.210;2022-08-19T19:26:38;21.50;99.90
3232;DHT22;1628;48.884;9.210;2022-08-19T19:29:05;21.50;99.90
3232;DHT22;1628;48.884;9.210;2022-08-19T19:31:34;21.40;99.90
3232;DHT22;1628;48.884;9.210;2022-08-19T19:34:00;21.50;99.90
3232;DHT22;1628;48.884;9.210;2022-08-19T19:36:27;21.40;99.90
3232;DHT22;1628;48.884;9.210;2022-08-19T19:38:54;21.50;99.90
3232;DHT22;1628;48.884;9.210;2022-08-19T19:41:22;21.50;99.90
3232;DHT22;1628;48.884;9.210;2022-08-19T19:43:49;21.40;99.90
3232;DHT22;1628;48.884;9.210;2022-08-19T19:46:16;21.50;99.90
3232;DHT22;1628;48.884;9.210;2022-08-19T19:48:44;21.40;99.90
3232;DHT22;1628;48.884;9.210;2022-08-19T19:51:12;21.40;99.90
3232;DHT22;1628;48.884;9.210;2022-08-19T19:53:39;21.40;99.90
3232;DHT22;1628;48.884;9.210;2022-08-19T19:56:06;21.40;99.90
3232;DHT22;1628;48.884;9.210;2022-08-19T19:58:34;21.40;99.90
3232;DHT22;1628;48.884;9.210;2022-08-19T20:01:02;21.40;99.90
3232;DHT22;1628;48.884;9.210;2022-08-19T20:03:29;21.50;99.90
3232;DHT22;1628;48.884;9.210;2022-08-19T20:05:58;21.50;99.90
3232;DHT22;1628;48.884;9.210;2022-08-19T20:08:25;21.60;99.90
3232;DHT22;1628;48.884;9.210;2022-08-19T20:11:10;21.60;99.90
3232;DHT22;1628;48.884;9.210;2022-08-19T20:13:41;21.60;99.90